Michal Jozwiak

Recruteur - Gornik Zabrze
21 Oct 2027
Jeudi
Processus

Personnalité

Adaptabilité (11) Ambition (10) Controverse (16) Loyauté (16) Pression (19) Professionnalisme (5) Sportivité (1) Tempérament (11)

Profil

Style d'entraînement Démocratique
Diplôme National A
Détermination 11
Gestion des joueurs 5
Motivation 7
Discipline 10
Satisfaction professionnelle
100%
Fatigue
0%
Rôle Recruteur
Salaire 27.8K p/s
Contrat 14.03.2029

Performance

Comportement Bon
Efficacité de l'entraînement
39%
Développement des joueurs
20%
Prévention des blessures
50%
Mise en place tactique
35%

Événements récents

A participé à une réunion de recrutement maintenant
A participé à une réunion de recrutement maintenant
A participé à une réunion de recrutement 7j
A participé à une réunion de recrutement 7j
A participé à une réunion de recrutement 7j
A recommandé une cible de transfert 7j
A participé à une réunion de recrutement 14j
A recommandé une cible de transfert 14j

Suivi en cours

115
Joueur Club Statut Capacité Confiance Observé Dernière observation Dernier vote
Allahyar Sayyadmanesh Lech Actif 121 / 129 65% 1 21.06.2027 Approuver
Ethan Williams Peterborough United Actif 121 / 116 40% 2 30.05.2027 -
Mfundo Vilakazi Kaizer Chiefs Actif 119 / 125 40% 1 30.05.2027 -
Franz-Ethan Meichtry Genoa Actif 123 / 118 40% 1 30.05.2027 -
Kamarni Ryan Burton Albion Actif 98 / 97 40% 3 28.05.2027 -
Daniel Vernattus Metalist Actif 91 / 86 40% 3 28.05.2027 -
Matías Gómez Granada Actif 111 / 120 40% 5 21.05.2027 -
Rodrigo Mora AS Roma Actif 140 / 141 40% 3 21.05.2027 -
Leo Castledine Middlesbrough Actif 136 / 136 40% 2 21.05.2027 -
Rayan Bournemouth Actif 141 / 132 40% 6 19.05.2027 -
Calum Agius Crewe Alexandra Actif 97 / 91 40% 4 19.05.2027 -
Monty Batlhabane Polokwane City Actif 107 / 98 40% 2 19.05.2027 -
Caleb Yirenkyi Coventry City Actif 138 / 143 40% 2 18.05.2027 -
Paulo Cardoso Sporting CP Actif 100 / 98 40% 2 18.05.2027 -
Yussif Saidu Zaragoza Actif 126 / 131 40% 1 18.05.2027 -
André Miranda Porto Actif 93 / 99 40% 2 17.05.2027 -
Jofre Torrents Ajax Actif 115 / 120 40% 2 14.05.2027 -
Christos Mouzakitis Hull City Actif 132 / 138 40% 2 12.05.2027 -
Othmane Maamma Watford Actif 124 / 136 40% 3 09.05.2027 -
Lander Astiazarán Real Sociedad Actif 109 / 119 40% 1 09.05.2027 -
Jayden Addai Como Actif 125 / 131 40% 1 02.05.2027 -
Riley Owen Trento Actif 93 / 104 40% 1 26.04.2027 -
Paulo Iago Sporting CP Actif 99 / 110 40% 1 22.04.2027 -
Thulani Dala Platinum Stars Actif 110 / 108 40% 3 20.04.2027 -
Kutlwano Letlhaku Ajax Cape Town Actif 109 / 114 40% 1 20.04.2027 -
Bongani Mothiba SuperSport United Actif 80 / 88 40% 1 19.04.2027 -
Joe Gelhardt Hull City Actif 142 / 132 40% 1 19.04.2027 -
Marezi Portsmouth Actif 120 / 132 40% 2 15.04.2027 -
Rhian Brewster Oxford United Actif 117 / 110 40% 2 15.04.2027 -
Rajmund Molnár Pogon Actif 117 / 107 40% 2 13.04.2027 -
Mees Rijks Bristol Rovers Actif 114 / 102 40% 1 13.04.2027 -
Luis Vázquez Birmingham Actif 126 / 126 40% 2 12.04.2027 -
Lorent Tolaj Plymouth Argyle Actif 130 / 112 40% 1 12.04.2027 -
Mihael Mlinarić Zaglebie Actif 124 / 116 40% 2 11.04.2027 -
Christ Inao Oulaï Fiorentina Actif 131 / 127 40% 2 10.04.2027 -
Promise Omochere Bristol Rovers Actif 87 / 99 40% 1 10.04.2027 -
Isaac Essien WAFA Actif 89 / 97 40% 1 08.04.2027 -
Jayden Wareham Barnet Actif 102 / 100 40% 1 08.04.2027 -
Christian Saydee Wigan Athletic Actif 110 / 109 40% 2 07.04.2027 -
Cameron Archer Southampton Actif 117 / 127 40% 1 07.04.2027 -
Yousef Salech Cardiff City Actif 123 / 129 40% 1 04.04.2027 -
Evidence Makgopa Orlando Pirates Actif 100 / 94 40% 2 02.04.2027 -
Mandla Mahlangu Ajax Cape Town Actif 102 / 102 40% 1 02.04.2027 -
Bernat Guiu Virtus Entella Actif 115 / 114 40% 1 29.03.2027 -
Kelvin Obeng Medeama Actif 84 / 74 40% 1 25.03.2027 -
Tom Cannon Sheffield United Actif 130 / 126 40% 1 24.03.2027 -
Richard Koné Queens Park Rangers Actif 132 / 124 40% 1 22.03.2027 -
Aune Heggebø West Bromwich Albion Actif 138 / 136 40% 1 21.03.2027 -
Kwame Opoku Asante Kotoko Actif 95 / 104 40% 1 21.03.2027 -
Tyreece Campbell Charlton Athletic Actif 117 / 113 40% 1 20.03.2027 -
Vladislav Blănuţă Lechia Actif 119 / 115 40% 1 18.03.2027 -
Bojan Radulović Huddersfield Town Actif 113 / 117 40% 1 18.03.2027 -
Lee Bonis Chesterfield Actif 97 / 106 40% 1 13.03.2027 -
Shea Lacey Wolverhampton Actif 116 / 126 40% 3 10.03.2027 -
Jayden Luker Barnet Actif 97 / 98 40% 1 09.03.2027 -
Cristian Shpendi Cesena Actif 123 / 131 40% 1 09.03.2027 -
Yaw Mensah Hasaacas Actif 75 / 91 40% 1 07.03.2027 -
Zack Nelson Bromley Actif 95 / 108 40% 1 05.03.2027 -
Mathias Jørgensen Blackburn Rovers Actif 118 / 118 40% 1 03.03.2027 -
Will Lankshear Middlesbrough Actif 121 / 116 40% 1 03.03.2027 -
Zaïd BafdilI Sporting CP Actif 86 / 93 40% 1 28.02.2027 -
Daniel Awuni Aduana Stars Actif 82 / 76 40% 2 26.02.2027 -
Hazeem Bakre Crawley Town Actif 82 / 88 40% 1 23.02.2027 -
Nikita Posmashny Chaika Actif 76 / 82 40% 1 23.02.2027 -
Joel McGregor Swindon Town Actif 102 / 100 40% 1 22.02.2027 -
Rocco Vata Watford Actif 129 / 127 40% 1 22.02.2027 -
David Ozoh Derby County Actif 112 / 122 40% 1 21.02.2027 -
Kai Enslin Charlton Athletic Actif 84 / 92 40% 1 18.02.2027 -
Percy Mothiba Platinum Stars Actif 65 / 96 40% 1 17.02.2027 -
Luke Baartman ES Mostaganem Actif 100 / 98 40% 1 14.02.2027 -
Darryl Bakola Padova Actif 99 / 123 40% 1 11.02.2027 -
Thomas Waddingham Portsmouth Actif 100 / 106 40% 1 09.02.2027 -
Hakim Sulemana Medeama Actif 95 / 118 40% 1 03.02.2027 -
Denis Pokotylo Chelyabinsk Actif 82 / 84 40% 1 03.02.2027 -
Lwanda Mbanjwa Maritzburg United Actif 80 / 78 40% 1 02.02.2027 -
Alex Amorim Genoa Actif 133 / 127 40% 1 25.01.2027 -
Arsen Adamov Akhmat Grozny Actif 131 / 122 40% 1 11.01.2027 -
Mohamed Ali Ben Romdhane Al Ahly Actif 135 / 123 40% 1 11.01.2027 -
Jakub Czerwiński Piast Actif 111 / 105 58% 1 07.01.2027 -
Aidan Morris Middlesbrough Actif 129 / 138 40% 1 29.12.2026 -
Sergey Pinyaev Lokomotiv Moscow Actif 122 / 129 40% 1 13.12.2026 -
Ole-Didrik Blomberg Bodo/Glimt Actif 123 / 117 40% 1 10.12.2026 -
Rodrigo Conceição Jagiellonia Actif 133 / 120 40% 1 09.12.2026 -
Williams Manyama SuperSport United Actif 99 / 110 40% 1 09.12.2026 -
Tedi Cara LNZ Actif 125 / 124 40% 1 08.12.2026 -
Luis Palma Lech Actif 124 / 111 40% 1 08.12.2026 -
Ruben van Bommel Ferencvaros Actif 129 / 140 40% 2 06.12.2026 -
Reda Khadra Qarabag Actif 139 / 148 40% 1 30.11.2026 -
Juan Manuel Boselli Krasnodar Actif 125 / 112 40% 1 30.11.2026 -
Roberto Massimo Wisla Krakow Actif 110 / 119 40% 1 25.11.2026 -
Gonzalo Ríos Independiente Rivadavia Actif 117 / 109 40% 1 25.11.2026 -
Tomás O'Connor Gimnasia y Esgrima Actif 131 / 106 40% 1 22.11.2026 -
Tomás González Piast Actif 111 / 126 40% 1 19.11.2026 -
Nicolás Romero Minnesota United FC Actif 131 / 120 40% 1 18.11.2026 -
Dijon Kameri Cracovia Actif 129 / 112 40% 1 18.11.2026 -
Alexander Díaz Deportivo Riestra Actif 126 / 102 40% 1 18.11.2026 -
Alberto Soro Dinamo Bucharest Actif 119 / 114 40% 1 17.11.2026 -
Michele Šego Hajduk Split Actif 112 / 129 40% 1 10.11.2026 -
Anders Klynge Jagiellonia Actif 107 / 105 40% 1 08.11.2026 -
Nazar Voloshyn Dynamo Kyiv Actif 123 / 126 40% 1 08.11.2026 -
Petar Stanić Ludogorets Actif 137 / 129 40% 1 03.11.2026 -
Tadeo Allende Inter Miami CF Actif 115 / 114 40% 1 02.11.2026 -
Tshepang Moremi Orlando Pirates Actif 125 / 95 40% 1 31.10.2026 Plus d'infos
Antony Portland Timbers Actif 136 / 127 40% 1 30.10.2026 -
Tomás Chancalay Minnesota United FC Actif 119 / 137 40% 1 30.10.2026 -
Mandla Erasmus SuperSport United Actif 108 / 132 40% 2 24.10.2026 -
Sayfallah Ltaief Cracovia Actif 118 / 131 40% 1 23.10.2026 Plus d'infos
Ammar Ramadan DAC Dunajska Streda Actif 123 / 112 40% 1 21.10.2026 -
Duncan McGuire Houston Dynamo Actif 135 / 127 40% 1 21.10.2026 -
Rubens Dinamo Moscow Actif 121 / 119 40% 1 20.10.2026 -
Oswin Appollis Orlando Pirates Actif 106 / 126 40% 1 15.10.2026 -
Santiago Rodríguez Columbus Crew Actif 109 / 136 40% 1 14.10.2026 -
Facundo Mura Inter Miami CF Actif 143 / 119 40% 1 07.10.2026 -
James Sands New York City Actif 114 / 133 40% 1 07.10.2026 -
Jorge Ruvalcaba New York Red Bulls Actif 131 / 136 40% 1 06.10.2026 -